sensor_id;sensor_type;location;lat;lon;timestamp;P1;durP1;ratioP1;P2;durP2;ratioP2
25079;SDS011;13071;48.868;9.996;2023-04-25T00:02:19;3.45;;;2.45;;
25079;SDS011;13071;48.868;9.996;2023-04-25T00:04:45;3.40;;;2.38;;
25079;SDS011;13071;48.868;9.996;2023-04-25T00:07:15;2.08;;;1.80;;
25079;SDS011;13071;48.868;9.996;2023-04-25T00:09:41;2.88;;;2.25;;
25079;SDS011;13071;48.868;9.996;2023-04-25T00:12:08;6.00;;;2.15;;
25079;SDS011;13071;48.868;9.996;2023-04-25T00:14:35;3.33;;;2.33;;
25079;SDS011;13071;48.868;9.996;2023-04-25T00:17:02;2.53;;;2.22;;
25079;SDS011;13071;48.868;9.996;2023-04-25T00:19:29;5.18;;;2.58;;
25079;SDS011;13071;48.868;9.996;2023-04-25T00:21:55;5.22;;;2.40;;
25079;SDS011;13071;48.868;9.996;2023-04-25T00:24:23;3.10;;;2.00;;
25079;SDS011;13071;48.868;9.996;2023-04-25T00:26:50;3.53;;;2.17;;
25079;SDS011;13071;48.868;9.996;2023-04-25T00:29:17;3.70;;;2.30;;
25079;SDS011;13071;48.868;9.996;2023-04-25T00:31:43;6.78;;;2.25;;
25079;SDS011;13071;48.868;9.996;2023-04-25T00:34:10;2.95;;;1.90;;
25079;SDS011;13071;48.868;9.996;2023-04-25T00:36:36;2.83;;;2.30;;
25079;SDS011;13071;48.868;9.996;2023-04-25T00:39:03;3.20;;;2.33;;
25079;SDS011;13071;48.868;9.996;2023-04-25T00:41:32;2.83;;;2.30;;
25079;SDS011;13071;48.868;9.996;2023-04-25T00:43:59;4.07;;;2.20;;
25079;SDS011;13071;48.868;9.996;2023-04-25T00:46:28;2.88;;;2.20;;
25079;SDS011;13071;48.868;9.996;2023-04-25T00:48:55;2.10;;;1.80;;
25079;SDS011;13071;48.868;9.996;2023-04-25T00:51:21;2.80;;;2.40;;
25079;SDS011;13071;48.868;9.996;2023-04-25T00:53:48;2.97;;;2.38;;
25079;SDS011;13071;48.868;9.996;2023-04-25T00:56:16;4.30;;;2.38;;
25079;SDS011;13071;48.868;9.996;2023-04-25T00:58:44;3.38;;;2.55;;
25079;SDS011;13071;48.868;9.996;2023-04-25T01:01:11;5.60;;;2.35;;
25079;SDS011;13071;48.868;9.996;2023-04-25T01:03:39;4.22;;;2.63;;
25079;SDS011;13071;48.868;9.996;2023-04-25T01:06:07;2.83;;;2.22;;
25079;SDS011;13071;48.868;9.996;2023-04-25T01:08:34;3.05;;;2.30;;
25079;SDS011;13071;48.868;9.996;2023-04-25T01:11:01;3.08;;;2.40;;
25079;SDS011;13071;48.868;9.996;2023-04-25T01:13:27;2.47;;;2.08;;
25079;SDS011;13071;48.868;9.996;2023-04-25T01:15:55;2.60;;;2.20;;
25079;SDS011;13071;48.868;9.996;2023-04-25T01:18:22;2.72;;;2.05;;
25079;SDS011;13071;48.868;9.996;2023-04-25T01:20:49;2.05;;;1.85;;
25079;SDS011;13071;48.868;9.996;2023-04-25T01:23:18;4.28;;;2.30;;
25079;SDS011;13071;48.868;9.996;2023-04-25T01:25:45;3.40;;;2.28;;
25079;SDS011;13071;48.868;9.996;2023-04-25T01:28:13;2.05;;;1.90;;
25079;SDS011;13071;48.868;9.996;2023-04-25T01:30:40;6.85;;;2.28;;
25079;SDS011;13071;48.868;9.996;2023-04-25T01:33:07;2.35;;;2.10;;
25079;SDS011;13071;48.868;9.996;2023-04-25T01:35:34;2.88;;;2.28;;
25079;SDS011;13071;48.868;9.996;2023-04-25T01:38:01;2.60;;;2.17;;
25079;SDS011;13071;48.868;9.996;2023-04-25T01:40:29;2.70;;;2.08;;
25079;SDS011;13071;48.868;9.996;2023-04-25T01:42:57;2.88;;;2.25;;
25079;SDS011;13071;48.868;9.996;2023-04-25T01:45:24;3.85;;;2.33;;
25079;SDS011;13071;48.868;9.996;2023-04-25T01:47:50;5.43;;;2.20;;
25079;SDS011;13071;48.868;9.996;2023-04-25T01:50:18;2.38;;;2.05;;
25079;SDS011;13071;48.868;9.996;2023-04-25T01:52:45;4.90;;;2.03;;
25079;SDS011;13071;48.868;9.996;2023-04-25T01:55:11;2.67;;;2.05;;
25079;SDS011;13071;48.868;9.996;2023-04-25T01:57:40;1.98;;;1.80;;
25079;SDS011;13071;48.868;9.996;2023-04-25T02:00:07;2.45;;;2.13;;
25079;SDS011;13071;48.868;9.996;2023-04-25T02:02:35;3.28;;;1.92;;
25079;SDS011;13071;48.868;9.996;2023-04-25T02:05:02;2.80;;;1.80;;
25079;SDS011;13071;48.868;9.996;2023-04-25T02:07:28;3.55;;;1.83;;
25079;SDS011;13071;48.868;9.996;2023-04-25T02:09:55;6.90;;;1.90;;
25079;SDS011;13071;48.868;9.996;2023-04-25T02:12:22;2.63;;;1.80;;
25079;SDS011;13071;48.868;9.996;2023-04-25T02:14:49;8.18;;;2.20;;
25079;SDS011;13071;48.868;9.996;2023-04-25T02:17:16;2.70;;;1.92;;
25079;SDS011;13071;48.868;9.996;2023-04-25T02:19:43;1.90;;;1.73;;
25079;SDS011;13071;48.868;9.996;2023-04-25T02:22:09;4.47;;;2.03;;
25079;SDS011;13071;48.868;9.996;2023-04-25T02:24:36;2.28;;;1.95;;
25079;SDS011;13071;48.868;9.996;2023-04-25T02:27:03;2.38;;;2.00;;
25079;SDS011;13071;48.868;9.996;2023-04-25T02:29:29;2.08;;;1.75;;
25079;SDS011;13071;48.868;9.996;2023-04-25T02:31:57;3.42;;;2.17;;
25079;SDS011;13071;48.868;9.996;2023-04-25T02:34:24;4.35;;;1.83;;
25079;SDS011;13071;48.868;9.996;2023-04-25T02:36:50;2.92;;;1.85;;
25079;SDS011;13071;48.868;9.996;2023-04-25T02:39:17;3.13;;;2.00;;
25079;SDS011;13071;48.868;9.996;2023-04-25T02:41:44;2.53;;;2.20;;
25079;SDS011;13071;48.868;9.996;2023-04-25T02:44:11;4.22;;;2.15;;
25079;SDS011;13071;48.868;9.996;2023-04-25T02:46:37;2.13;;;1.80;;
25079;SDS011;13071;48.868;9.996;2023-04-25T02:49:05;1.90;;;1.80;;
25079;SDS011;13071;48.868;9.996;2023-04-25T02:51:32;2.00;;;1.80;;
25079;SDS011;13071;48.868;9.996;2023-04-25T02:53:58;2.00;;;1.80;;
25079;SDS011;13071;48.868;9.996;2023-04-25T02:56:25;2.50;;;1.85;;
25079;SDS011;13071;48.868;9.996;2023-04-25T02:58:52;2.85;;;2.10;;
25079;SDS011;13071;48.868;9.996;2023-04-25T03:01:19;2.88;;;2.22;;
25079;SDS011;13071;48.868;9.996;2023-04-25T03:03:45;4.63;;;2.30;;
25079;SDS011;13071;48.868;9.996;2023-04-25T03:06:13;3.55;;;2.17;;
25079;SDS011;13071;48.868;9.996;2023-04-25T03:08:40;2.45;;;2.10;;
25079;SDS011;13071;48.868;9.996;2023-04-25T03:11:07;3.47;;;1.98;;
25079;SDS011;13071;48.868;9.996;2023-04-25T03:13:33;2.35;;;2.08;;
25079;SDS011;13071;48.868;9.996;2023-04-25T03:16:00;4.40;;;2.60;;
25079;SDS011;13071;48.868;9.996;2023-04-25T03:18:27;3.83;;;2.63;;
25079;SDS011;13071;48.868;9.996;2023-04-25T03:20:53;3.63;;;2.30;;
25079;SDS011;13071;48.868;9.996;2023-04-25T03:23:21;5.60;;;2.60;;
25079;SDS011;13071;48.868;9.996;2023-04-25T03:25:48;4.97;;;2.40;;
25079;SDS011;13071;48.868;9.996;2023-04-25T03:28:14;7.63;;;2.58;;
25079;SDS011;13071;48.868;9.996;2023-04-25T03:30:41;4.50;;;2.40;;
25079;SDS011;13071;48.868;9.996;2023-04-25T03:33:07;4.68;;;3.20;;
25079;SDS011;13071;48.868;9.996;2023-04-25T03:35:34;4.53;;;2.50;;
25079;SDS011;13071;48.868;9.996;2023-04-25T03:38:00;3.10;;;2.20;;
25079;SDS011;13071;48.868;9.996;2023-04-25T03:40:28;2.17;;;1.98;;
25079;SDS011;13071;48.868;9.996;2023-04-25T03:42:55;2.65;;;2.28;;
25079;SDS011;13071;48.868;9.996;2023-04-25T03:45:21;5.22;;;2.20;;
25079;SDS011;13071;48.868;9.996;2023-04-25T03:47:48;5.00;;;2.30;;
25079;SDS011;13071;48.868;9.996;2023-04-25T03:50:15;4.72;;;2.80;;
25079;SDS011;13071;48.868;9.996;2023-04-25T03:52:42;4.65;;;2.75;;
25079;SDS011;13071;48.868;9.996;2023-04-25T03:55:09;4.30;;;2.65;;
25079;SDS011;13071;48.868;9.996;2023-04-25T03:57:37;3.78;;;2.72;;
25079;SDS011;13071;48.868;9.996;2023-04-25T04:00:04;4.05;;;2.70;;
25079;SDS011;13071;48.868;9.996;2023-04-25T04:02:33;4.32;;;2.83;;
25079;SDS011;13071;48.868;9.996;2023-04-25T04:05:01;4.18;;;2.53;;
25079;SDS011;13071;48.868;9.996;2023-04-25T04:07:28;3.47;;;2.60;;
25079;SDS011;13071;48.868;9.996;2023-04-25T04:09:54;3.15;;;2.40;;
25079;SDS011;13071;48.868;9.996;2023-04-25T04:12:21;4.38;;;2.97;;
25079;SDS011;13071;48.868;9.996;2023-04-25T04:14:49;3.42;;;2.30;;
25079;SDS011;13071;48.868;9.996;2023-04-25T04:17:15;4.18;;;2.72;;
25079;SDS011;13071;48.868;9.996;2023-04-25T04:19:42;5.97;;;2.92;;
25079;SDS011;13071;48.868;9.996;2023-04-25T04:22:09;5.75;;;2.88;;
25079;SDS011;13071;48.868;9.996;2023-04-25T04:24:36;4.97;;;3.00;;
25079;SDS011;13071;48.868;9.996;2023-04-25T04:27:02;3.05;;;2.63;;
25079;SDS011;13071;48.868;9.996;2023-04-25T04:29:29;6.00;;;3.03;;
25079;SDS011;13071;48.868;9.996;2023-04-25T04:31:57;4.05;;;3.08;;
25079;SDS011;13071;48.868;9.996;2023-04-25T04:34:26;4.68;;;3.08;;
25079;SDS011;13071;48.868;9.996;2023-04-25T04:36:52;6.72;;;3.38;;
25079;SDS011;13071;48.868;9.996;2023-04-25T04:39:19;6.85;;;3.58;;
25079;SDS011;13071;48.868;9.996;2023-04-25T04:41:46;6.63;;;3.42;;
25079;SDS011;13071;48.868;9.996;2023-04-25T04:44:12;5.18;;;3.08;;
25079;SDS011;13071;48.868;9.996;2023-04-25T04:46:40;5.15;;;3.25;;
25079;SDS011;13071;48.868;9.996;2023-04-25T04:49:08;4.65;;;3.00;;
25079;SDS011;13071;48.868;9.996;2023-04-25T04:51:35;6.07;;;3.03;;
25079;SDS011;13071;48.868;9.996;2023-04-25T04:54:02;3.08;;;2.75;;
25079;SDS011;13071;48.868;9.996;2023-04-25T04:56:29;5.80;;;2.90;;
25079;SDS011;13071;48.868;9.996;2023-04-25T04:58:56;5.80;;;2.70;;
25079;SDS011;13071;48.868;9.996;2023-04-25T05:01:23;5.50;;;3.17;;
25079;SDS011;13071;48.868;9.996;2023-04-25T05:03:51;4.90;;;3.08;;
25079;SDS011;13071;48.868;9.996;2023-04-25T05:06:19;6.03;;;3.33;;
25079;SDS011;13071;48.868;9.996;2023-04-25T05:08:45;4.95;;;3.08;;
25079;SDS011;13071;48.868;9.996;2023-04-25T05:11:12;3.20;;;2.80;;
25079;SDS011;13071;48.868;9.996;2023-04-25T05:13:38;6.78;;;2.97;;
25079;SDS011;13071;48.868;9.996;2023-04-25T05:16:05;4.63;;;3.05;;
25079;SDS011;13071;48.868;9.996;2023-04-25T05:18:32;5.28;;;3.38;;
25079;SDS011;13071;48.868;9.996;2023-04-25T05:20:58;7.88;;;4.13;;
25079;SDS011;13071;48.868;9.996;2023-04-25T05:23:26;5.60;;;2.85;;
25079;SDS011;13071;48.868;9.996;2023-04-25T05:25:55;5.63;;;3.22;;
25079;SDS011;13071;48.868;9.996;2023-04-25T05:28:22;8.10;;;3.17;;
25079;SDS011;13071;48.868;9.996;2023-04-25T05:30:48;5.47;;;3.28;;
25079;SDS011;13071;48.868;9.996;2023-04-25T05:33:15;3.88;;;2.95;;
25079;SDS011;13071;48.868;9.996;2023-04-25T05:35:42;7.10;;;3.30;;
25079;SDS011;13071;48.868;9.996;2023-04-25T05:38:09;7.45;;;3.03;;
25079;SDS011;13071;48.868;9.996;2023-04-25T05:40:36;4.53;;;2.80;;
25079;SDS011;13071;48.868;9.996;2023-04-25T05:43:03;4.80;;;2.95;;
25079;SDS011;13071;48.868;9.996;2023-04-25T05:45:30;4.53;;;3.15;;
25079;SDS011;13071;48.868;9.996;2023-04-25T05:47:56;7.38;;;3.58;;
25079;SDS011;13071;48.868;9.996;2023-04-25T05:50:23;3.63;;;2.97;;
25079;SDS011;13071;48.868;9.996;2023-04-25T05:52:50;4.78;;;3.10;;
25079;SDS011;13071;48.868;9.996;2023-04-25T05:55:17;5.70;;;3.42;;
25079;SDS011;13071;48.868;9.996;2023-04-25T05:57:45;5.38;;;3.22;;
25079;SDS011;13071;48.868;9.996;2023-04-25T06:00:12;4.43;;;2.95;;
25079;SDS011;13071;48.868;9.996;2023-04-25T06:02:40;6.55;;;3.13;;
25079;SDS011;13071;48.868;9.996;2023-04-25T06:05:08;6.03;;;3.72;;
25079;SDS011;13071;48.868;9.996;2023-04-25T06:07:34;5.78;;;3.40;;
25079;SDS011;13071;48.868;9.996;2023-04-25T06:10:01;3.50;;;2.47;;
25079;SDS011;13071;48.868;9.996;2023-04-25T06:12:31;4.65;;;2.92;;
25079;SDS011;13071;48.868;9.996;2023-04-25T06:14:59;7.32;;;2.97;;
25079;SDS011;13071;48.868;9.996;2023-04-25T06:17:25;3.15;;;2.70;;
25079;SDS011;13071;48.868;9.996;2023-04-25T06:19:52;4.35;;;3.35;;
25079;SDS011;13071;48.868;9.996;2023-04-25T06:22:19;4.40;;;2.83;;
25079;SDS011;13071;48.868;9.996;2023-04-25T06:24:45;6.60;;;3.20;;
25079;SDS011;13071;48.868;9.996;2023-04-25T06:27:12;6.93;;;3.70;;
25079;SDS011;13071;48.868;9.996;2023-04-25T06:29:39;5.82;;;3.30;;
25079;SDS011;13071;48.868;9.996;2023-04-25T06:32:06;4.68;;;2.88;;
25079;SDS011;13071;48.868;9.996;2023-04-25T06:34:33;4.20;;;3.10;;
25079;SDS011;13071;48.868;9.996;2023-04-25T06:37:00;5.95;;;3.30;;
25079;SDS011;13071;48.868;9.996;2023-04-25T06:39:26;6.68;;;3.35;;
25079;SDS011;13071;48.868;9.996;2023-04-25T06:41:53;4.80;;;3.25;;
25079;SDS011;13071;48.868;9.996;2023-04-25T06:44:19;5.15;;;3.20;;
25079;SDS011;13071;48.868;9.996;2023-04-25T06:46:48;4.40;;;3.13;;
25079;SDS011;13071;48.868;9.996;2023-04-25T06:49:16;7.88;;;3.55;;
25079;SDS011;13071;48.868;9.996;2023-04-25T06:51:42;7.22;;;3.63;;
25079;SDS011;13071;48.868;9.996;2023-04-25T06:54:09;5.50;;;3.50;;
25079;SDS011;13071;48.868;9.996;2023-04-25T06:56:35;5.40;;;3.58;;
25079;SDS011;13071;48.868;9.996;2023-04-25T06:59:02;5.00;;;3.13;;
25079;SDS011;13071;48.868;9.996;2023-04-25T07:01:29;7.20;;;3.30;;
25079;SDS011;13071;48.868;9.996;2023-04-25T07:03:56;4.40;;;3.40;;
25079;SDS011;13071;48.868;9.996;2023-04-25T07:06:23;5.55;;;3.78;;
25079;SDS011;13071;48.868;9.996;2023-04-25T07:08:51;6.63;;;3.50;;
25079;SDS011;13071;48.868;9.996;2023-04-25T07:11:18;4.82;;;3.13;;
25079;SDS011;13071;48.868;9.996;2023-04-25T07:13:45;4.38;;;3.40;;
25079;SDS011;13071;48.868;9.996;2023-04-25T07:16:11;6.28;;;3.58;;
25079;SDS011;13071;48.868;9.996;2023-04-25T07:18:38;6.13;;;3.08;;
25079;SDS011;13071;48.868;9.996;2023-04-25T07:21:04;5.25;;;3.92;;
25079;SDS011;13071;48.868;9.996;2023-04-25T07:23:32;6.72;;;3.60;;
25079;SDS011;13071;48.868;9.996;2023-04-25T07:25:59;5.68;;;3.58;;
25079;SDS011;13071;48.868;9.996;2023-04-25T07:28:25;6.43;;;3.90;;
25079;SDS011;13071;48.868;9.996;2023-04-25T07:30:52;5.70;;;3.75;;
25079;SDS011;13071;48.868;9.996;2023-04-25T07:33:18;5.43;;;3.50;;
25079;SDS011;13071;48.868;9.996;2023-04-25T07:35:46;5.70;;;3.65;;
25079;SDS011;13071;48.868;9.996;2023-04-25T07:38:13;5.75;;;3.58;;
25079;SDS011;13071;48.868;9.996;2023-04-25T07:40:41;5.57;;;3.78;;
25079;SDS011;13071;48.868;9.996;2023-04-25T07:43:07;6.25;;;4.13;;
25079;SDS011;13071;48.868;9.996;2023-04-25T07:45:34;6.68;;;3.97;;
25079;SDS011;13071;48.868;9.996;2023-04-25T07:48:00;5.25;;;3.55;;
25079;SDS011;13071;48.868;9.996;2023-04-25T07:50:28;6.55;;;3.58;;
25079;SDS011;13071;48.868;9.996;2023-04-25T07:52:54;4.68;;;3.22;;
25079;SDS011;13071;48.868;9.996;2023-04-25T07:55:21;5.55;;;3.53;;
25079;SDS011;13071;48.868;9.996;2023-04-25T07:57:49;6.78;;;3.70;;
25079;SDS011;13071;48.868;9.996;2023-04-25T08:00:15;5.15;;;3.42;;
25079;SDS011;13071;48.868;9.996;2023-04-25T08:02:42;5.15;;;3.58;;
25079;SDS011;13071;48.868;9.996;2023-04-25T08:05:09;5.65;;;3.70;;
25079;SDS011;13071;48.868;9.996;2023-04-25T08:07:39;6.20;;;3.58;;
25079;SDS011;13071;48.868;9.996;2023-04-25T08:10:06;6.68;;;4.05;;
25079;SDS011;13071;48.868;9.996;2023-04-25T08:12:33;5.25;;;3.30;;
25079;SDS011;13071;48.868;9.996;2023-04-25T08:15:01;7.20;;;3.85;;
25079;SDS011;13071;48.868;9.996;2023-04-25T08:17:28;4.95;;;3.33;;
25079;SDS011;13071;48.868;9.996;2023-04-25T08:19:54;3.92;;;3.20;;
25079;SDS011;13071;48.868;9.996;2023-04-25T08:22:22;3.65;;;2.70;;
25079;SDS011;13071;48.868;9.996;2023-04-25T08:24:48;4.00;;;2.13;;
25079;SDS011;13071;48.868;9.996;2023-04-25T08:27:15;3.25;;;2.10;;
25079;SDS011;13071;48.868;9.996;2023-04-25T08:29:41;4.03;;;2.72;;
25079;SDS011;13071;48.868;9.996;2023-04-25T08:32:09;2.85;;;2.50;;
25079;SDS011;13071;48.868;9.996;2023-04-25T08:34:36;3.10;;;2.67;;
25079;SDS011;13071;48.868;9.996;2023-04-25T08:37:04;2.38;;;1.80;;
25079;SDS011;13071;48.868;9.996;2023-04-25T08:39:31;1.90;;;1.60;;
25079;SDS011;13071;48.868;9.996;2023-04-25T08:41:57;4.50;;;2.28;;
25079;SDS011;13071;48.868;9.996;2023-04-25T08:44:24;2.67;;;2.10;;
25079;SDS011;13071;48.868;9.996;2023-04-25T08:46:51;3.35;;;2.45;;
25079;SDS011;13071;48.868;9.996;2023-04-25T08:49:19;2.50;;;2.03;;
25079;SDS011;13071;48.868;9.996;2023-04-25T08:51:46;3.88;;;2.35;;
25079;SDS011;13071;48.868;9.996;2023-04-25T08:54:14;3.00;;;2.28;;
25079;SDS011;13071;48.868;9.996;2023-04-25T08:56:43;4.20;;;2.72;;
25079;SDS011;13071;48.868;9.996;2023-04-25T08:59:11;2.83;;;2.20;;
25079;SDS011;13071;48.868;9.996;2023-04-25T09:01:38;2.90;;;2.45;;
25079;SDS011;13071;48.868;9.996;2023-04-25T09:04:05;3.75;;;2.58;;
25079;SDS011;13071;48.868;9.996;2023-04-25T09:06:33;3.05;;;2.33;;
25079;SDS011;13071;48.868;9.996;2023-04-25T09:09:01;2.83;;;2.30;;
25079;SDS011;13071;48.868;9.996;2023-04-25T09:11:29;2.80;;;2.25;;
25079;SDS011;13071;48.868;9.996;2023-04-25T09:14:09;2.45;;;2.20;;
25079;SDS011;13071;48.868;9.996;2023-04-25T09:16:47;3.50;;;2.67;;
25079;SDS011;13071;48.868;9.996;2023-04-25T09:19:24;3.03;;;2.15;;
25079;SDS011;13071;48.868;9.996;2023-04-25T09:21:54;2.67;;;2.25;;
25079;SDS011;13071;48.868;9.996;2023-04-25T09:24:31;3.92;;;2.78;;
25079;SDS011;13071;48.868;9.996;2023-04-25T09:27:03;4.93;;;2.63;;
25079;SDS011;13071;48.868;9.996;2023-04-25T09:29:31;3.50;;;2.50;;
25079;SDS011;13071;48.868;9.996;2023-04-25T09:34:46;6.05;;;3.10;;
25079;SDS011;13071;48.868;9.996;2023-04-25T09:37:18;4.90;;;2.88;;
25079;SDS011;13071;48.868;9.996;2023-04-25T09:39:45;5.78;;;3.15;;
25079;SDS011;13071;48.868;9.996;2023-04-25T09:42:13;6.28;;;3.20;;
25079;SDS011;13071;48.868;9.996;2023-04-25T09:44:42;6.18;;;3.70;;
25079;SDS011;13071;48.868;9.996;2023-04-25T09:47:09;5.00;;;3.35;;
25079;SDS011;13071;48.868;9.996;2023-04-25T09:49:38;6.72;;;4.03;;
25079;SDS011;13071;48.868;9.996;2023-04-25T09:52:07;4.72;;;3.42;;
25079;SDS011;13071;48.868;9.996;2023-04-25T09:54:35;5.38;;;3.55;;
25079;SDS011;13071;48.868;9.996;2023-04-25T09:57:02;4.32;;;3.25;;
25079;SDS011;13071;48.868;9.996;2023-04-25T09:59:37;4.95;;;3.78;;
25079;SDS011;13071;48.868;9.996;2023-04-25T10:02:06;7.45;;;3.75;;
25079;SDS011;13071;48.868;9.996;2023-04-25T10:04:34;6.45;;;3.40;;
25079;SDS011;13071;48.868;9.996;2023-04-25T10:07:01;8.80;;;4.38;;
25079;SDS011;13071;48.868;9.996;2023-04-25T10:09:31;7.07;;;4.15;;
25079;SDS011;13071;48.868;9.996;2023-04-25T10:12:00;7.68;;;4.40;;
25079;SDS011;13071;48.868;9.996;2023-04-25T10:14:26;6.88;;;4.00;;
25079;SDS011;13071;48.868;9.996;2023-04-25T10:16:55;7.13;;;4.25;;
25079;SDS011;13071;48.868;9.996;2023-04-25T10:19:23;7.25;;;3.95;;
25079;SDS011;13071;48.868;9.996;2023-04-25T10:21:51;6.70;;;3.97;;
25079;SDS011;13071;48.868;9.996;2023-04-25T10:24:20;7.00;;;4.40;;
25079;SDS011;13071;48.868;9.996;2023-04-25T10:26:47;8.48;;;4.38;;
25079;SDS011;13071;48.868;9.996;2023-04-25T10:29:22;7.40;;;4.18;;
25079;SDS011;13071;48.868;9.996;2023-04-25T10:31:50;6.70;;;3.97;;
25079;SDS011;13071;48.868;9.996;2023-04-25T10:34:16;7.40;;;4.85;;
25079;SDS011;13071;48.868;9.996;2023-04-25T10:36:46;6.43;;;4.15;;
25079;SDS011;13071;48.868;9.996;2023-04-25T10:39:19;7.07;;;4.25;;
25079;SDS011;13071;48.868;9.996;2023-04-25T10:41:51;6.57;;;4.25;;
25079;SDS011;13071;48.868;9.996;2023-04-25T10:44:22;7.60;;;4.40;;
25079;SDS011;13071;48.868;9.996;2023-04-25T10:46:52;6.45;;;4.05;;
25079;SDS011;13071;48.868;9.996;2023-04-25T10:49:30;5.97;;;3.47;;
25079;SDS011;13071;48.868;9.996;2023-04-25T10:52:11;4.47;;;3.33;;
25079;SDS011;13071;48.868;9.996;2023-04-25T10:54:42;3.47;;;2.88;;
25079;SDS011;13071;48.868;9.996;2023-04-25T10:57:28;7.25;;;3.50;;
25079;SDS011;13071;48.868;9.996;2023-04-25T11:00:06;4.18;;;3.08;;
25079;SDS011;13071;48.868;9.996;2023-04-25T11:02:42;6.20;;;3.67;;
25079;SDS011;13071;48.868;9.996;2023-04-25T11:05:16;5.15;;;3.85;;
25079;SDS011;13071;48.868;9.996;2023-04-25T11:07:50;8.73;;;4.10;;
25079;SDS011;13071;48.868;9.996;2023-04-25T11:10:17;6.72;;;3.75;;
25079;SDS011;13071;48.868;9.996;2023-04-25T11:12:45;8.93;;;4.10;;
25079;SDS011;13071;48.868;9.996;2023-04-25T11:15:13;11.32;;;4.00;;
25079;SDS011;13071;48.868;9.996;2023-04-25T11:17:39;11.02;;;5.30;;
25079;SDS011;13071;48.868;9.996;2023-04-25T11:20:06;11.75;;;5.70;;
25079;SDS011;13071;48.868;9.996;2023-04-25T11:22:37;8.18;;;4.55;;
25079;SDS011;13071;48.868;9.996;2023-04-25T11:25:07;18.27;;;9.50;;
25079;SDS011;13071;48.868;9.996;2023-04-25T11:27:37;7.45;;;4.40;;
25079;SDS011;13071;48.868;9.996;2023-04-25T11:30:13;10.15;;;5.15;;
25079;SDS011;13071;48.868;9.996;2023-04-25T11:32:41;16.63;;;7.68;;
25079;SDS011;13071;48.868;9.996;2023-04-25T11:35:08;10.68;;;5.78;;
25079;SDS011;13071;48.868;9.996;2023-04-25T11:37:35;11.05;;;5.78;;
25079;SDS011;13071;48.868;9.996;2023-04-25T11:40:02;7.85;;;4.82;;
25079;SDS011;13071;48.868;9.996;2023-04-25T11:42:31;12.98;;;6.65;;
25079;SDS011;13071;48.868;9.996;2023-04-25T11:44:58;8.70;;;5.20;;
25079;SDS011;13071;48.868;9.996;2023-04-25T11:47:28;6.57;;;4.15;;
25079;SDS011;13071;48.868;9.996;2023-04-25T11:49:57;6.97;;;4.00;;
25079;SDS011;13071;48.868;9.996;2023-04-25T11:52:24;5.47;;;3.80;;
25079;SDS011;13071;48.868;9.996;2023-04-25T11:54:50;5.60;;;3.92;;
25079;SDS011;13071;48.868;9.996;2023-04-25T11:57:18;5.57;;;3.67;;
25079;SDS011;13071;48.868;9.996;2023-04-25T11:59:45;6.68;;;3.72;;
25079;SDS011;13071;48.868;9.996;2023-04-25T12:02:23;7.75;;;4.25;;
25079;SDS011;13071;48.868;9.996;2023-04-25T12:04:51;7.35;;;4.43;;
25079;SDS011;13071;48.868;9.996;2023-04-25T12:07:18;6.85;;;4.38;;
25079;SDS011;13071;48.868;9.996;2023-04-25T12:09:51;5.03;;;3.95;;
25079;SDS011;13071;48.868;9.996;2023-04-25T12:12:17;9.88;;;4.20;;
25079;SDS011;13071;48.868;9.996;2023-04-25T12:14:46;8.38;;;4.20;;
25079;SDS011;13071;48.868;9.996;2023-04-25T12:17:13;8.63;;;4.43;;
25079;SDS011;13071;48.868;9.996;2023-04-25T12:19:40;6.43;;;4.15;;
25079;SDS011;13071;48.868;9.996;2023-04-25T12:22:19;7.05;;;4.10;;
25079;SDS011;13071;48.868;9.996;2023-04-25T12:24:47;8.57;;;4.63;;
25079;SDS011;13071;48.868;9.996;2023-04-25T12:27:14;9.73;;;5.75;;
25079;SDS011;13071;48.868;9.996;2023-04-25T12:29:49;9.05;;;4.35;;
25079;SDS011;13071;48.868;9.996;2023-04-25T12:32:17;8.93;;;4.32;;
25079;SDS011;13071;48.868;9.996;2023-04-25T12:34:44;8.20;;;3.83;;
25079;SDS011;13071;48.868;9.996;2023-04-25T12:37:11;5.60;;;3.55;;
25079;SDS011;13071;48.868;9.996;2023-04-25T12:39:39;7.07;;;3.90;;
25079;SDS011;13071;48.868;9.996;2023-04-25T12:42:05;6.38;;;3.88;;
25079;SDS011;13071;48.868;9.996;2023-04-25T12:44:32;6.40;;;3.95;;
25079;SDS011;13071;48.868;9.996;2023-04-25T12:46:59;6.32;;;3.65;;
25079;SDS011;13071;48.868;9.996;2023-04-25T12:49:26;4.97;;;3.17;;
25079;SDS011;13071;48.868;9.996;2023-04-25T12:51:52;5.40;;;3.50;;
25079;SDS011;13071;48.868;9.996;2023-04-25T12:54:19;5.50;;;3.50;;
25079;SDS011;13071;48.868;9.996;2023-04-25T12:56:47;5.72;;;3.85;;
25079;SDS011;13071;48.868;9.996;2023-04-25T12:59:13;5.90;;;3.78;;
25079;SDS011;13071;48.868;9.996;2023-04-25T13:01:40;5.00;;;3.70;;
25079;SDS011;13071;48.868;9.996;2023-04-25T13:04:06;8.20;;;4.13;;
25079;SDS011;13071;48.868;9.996;2023-04-25T13:06:33;5.40;;;4.05;;
25079;SDS011;13071;48.868;9.996;2023-04-25T13:09:00;7.35;;;3.78;;
25079;SDS011;13071;48.868;9.996;2023-04-25T13:11:26;6.53;;;3.90;;
25079;SDS011;13071;48.868;9.996;2023-04-25T13:13:55;6.10;;;4.22;;
25079;SDS011;13071;48.868;9.996;2023-04-25T13:16:21;5.95;;;3.83;;
25079;SDS011;13071;48.868;9.996;2023-04-25T13:18:48;5.90;;;4.00;;
25079;SDS011;13071;48.868;9.996;2023-04-25T13:21:14;5.88;;;3.85;;
25079;SDS011;13071;48.868;9.996;2023-04-25T13:23:41;5.35;;;3.65;;
25079;SDS011;13071;48.868;9.996;2023-04-25T13:26:09;4.85;;;3.92;;
25079;SDS011;13071;48.868;9.996;2023-04-25T13:28:36;7.20;;;3.92;;
25079;SDS011;13071;48.868;9.996;2023-04-25T13:31:04;6.35;;;3.97;;
25079;SDS011;13071;48.868;9.996;2023-04-25T13:33:31;7.25;;;4.18;;
25079;SDS011;13071;48.868;9.996;2023-04-25T13:35:57;10.05;;;4.85;;
25079;SDS011;13071;48.868;9.996;2023-04-25T13:38:24;7.85;;;4.63;;
25079;SDS011;13071;48.868;9.996;2023-04-25T13:40:51;6.32;;;3.90;;
25079;SDS011;13071;48.868;9.996;2023-04-25T13:43:18;11.32;;;4.45;;
25079;SDS011;13071;48.868;9.996;2023-04-25T13:45:45;6.57;;;4.07;;
25079;SDS011;13071;48.868;9.996;2023-04-25T13:48:13;9.48;;;4.85;;
25079;SDS011;13071;48.868;9.996;2023-04-25T13:50:40;7.85;;;3.95;;
25079;SDS011;13071;48.868;9.996;2023-04-25T13:53:07;6.95;;;4.65;;
25079;SDS011;13071;48.868;9.996;2023-04-25T13:55:34;7.18;;;3.95;;
25079;SDS011;13071;48.868;9.996;2023-04-25T13:58:01;10.73;;;5.13;;
25079;SDS011;13071;48.868;9.996;2023-04-25T14:00:32;6.18;;;4.25;;
25079;SDS011;13071;48.868;9.996;2023-04-25T14:03:02;8.88;;;4.57;;
25079;SDS011;13071;48.868;9.996;2023-04-25T14:05:33;6.20;;;4.13;;
25079;SDS011;13071;48.868;9.996;2023-04-25T14:08:03;7.35;;;4.10;;
25079;SDS011;13071;48.868;9.996;2023-04-25T14:10:30;6.63;;;3.80;;
25079;SDS011;13071;48.868;9.996;2023-04-25T14:12:57;6.38;;;4.00;;
25079;SDS011;13071;48.868;9.996;2023-04-25T14:15:24;3.28;;;2.58;;
25079;SDS011;13071;48.868;9.996;2023-04-25T14:17:50;3.10;;;2.10;;
25079;SDS011;13071;48.868;9.996;2023-04-25T14:20:17;7.53;;;1.70;;
25079;SDS011;13071;48.868;9.996;2023-04-25T14:22:46;1.45;;;1.30;;
25079;SDS011;13071;48.868;9.996;2023-04-25T14:25:13;1.73;;;1.63;;
25079;SDS011;13071;48.868;9.996;2023-04-25T14:27:40;1.70;;;1.40;;
25079;SDS011;13071;48.868;9.996;2023-04-25T14:30:07;1.92;;;1.25;;
25079;SDS011;13071;48.868;9.996;2023-04-25T14:32:34;1.40;;;1.30;;
25079;SDS011;13071;48.868;9.996;2023-04-25T14:35:01;1.17;;;1.17;;
25079;SDS011;13071;48.868;9.996;2023-04-25T14:37:28;1.40;;;1.30;;
25079;SDS011;13071;48.868;9.996;2023-04-25T14:39:55;1.58;;;1.45;;
25079;SDS011;13071;48.868;9.996;2023-04-25T14:42:22;1.45;;;1.35;;
25079;SDS011;13071;48.868;9.996;2023-04-25T14:44:49;1.67;;;1.35;;
25079;SDS011;13071;48.868;9.996;2023-04-25T14:47:16;2.70;;;1.85;;
25079;SDS011;13071;48.868;9.996;2023-04-25T14:49:42;2.88;;;2.15;;
25079;SDS011;13071;48.868;9.996;2023-04-25T14:52:11;2.42;;;1.98;;
25079;SDS011;13071;48.868;9.996;2023-04-25T14:54:38;5.68;;;2.15;;